Time;durP1;ratioP1;P1;durP2;ratioP2;P2;SDS_P1;SDS_P2;PMS_P1;PMS_P2;Temp;Humidity;BMP_temperature;BMP_pressure;BME280_temperature;BME280_humidity;BME280_pressure;Samples;Min_cycle;Max_cycle;Signal;HPM_P1;HPM_P2
2023/10/11 00:03:32;;;;;;;10.70;5.20;;;;;;;;;;5066164;28;20021;-46
2023/10/11 00:05:51;;;;;;;9.98;5.18;;;;;;;;;;5085354;28;20111;-39
2023/10/11 00:08:19;;;;;;;12.95;4.53;;;;;;;;;;5086280;28;20028;-51
2023/10/11 00:10:59;;;;;;;29.35;5.85;;;;;;;;;;5086361;28;20040;-40
2023/10/11 00:13:32;;;;;;;70.97;9.38;;;;;;;;;;5082006;28;20043;-40
2023/10/11 00:16:06;;;;;;;46.38;7.47;;;;;;;;;;5066455;28;20092;-33
2023/10/11 00:18:34;;;;;;;47.72;8.13;;;;;;;;;;5065992;28;20029;-35
2023/10/11 00:21:10;;;;;;;58.63;8.77;;;;;;;;;;5064466;28;20044;-38
2023/10/11 00:23:37;;;;;;;47.50;8.20;;;;;;;;;;5065285;28;20037;-51
2023/10/11 00:26:06;;;;;;;34.90;7.28;;;;;;;;;;5066211;28;20051;-42
2023/10/11 00:28:34;;;;;;;34.33;7.18;;;;;;;;;;5066170;28;20024;-48
2023/10/11 00:31:01;;;;;;;28.65;7.15;;;;;;;;;;5065628;28;20108;-47
2023/10/11 00:33:29;;;;;;;23.40;7.40;;;;;;;;;;5066279;28;20309;-36
2023/10/11 00:35:56;;;;;;;77.85;10.70;;;;;;;;;;5065866;28;20032;-48
2023/10/11 00:38:31;;;;;;;159.05;16.90;;;;;;;;;;5064888;28;20027;-46
2023/10/11 00:43:35;;;;;;;108.05;12.70;;;;;;;;;;5064531;28;20184;-42
2023/10/11 00:46:03;;;;;;;82.32;11.68;;;;;;;;;;5063767;28;20318;-44
2023/10/11 00:48:31;;;;;;;46.97;8.77;;;;;;;;;;5064268;28;20309;-38
2023/10/11 00:50:58;;;;;;;28.15;7.95;;;;;;;;;;5064755;28;20033;-49
2023/10/11 00:53:26;;;;;;;21.92;6.68;;;;;;;;;;5064880;28;20250;-43
2023/10/11 00:55:57;;;;;;;19.63;6.60;;;;;;;;;;5065746;28;20036;-39
2023/10/11 00:58:23;;;;;;;20.65;6.20;;;;;;;;;;5065643;28;20096;-38
2023/10/11 01:00:50;;;;;;;38.97;7.32;;;;;;;;;;5065151;28;20021;-48
2023/10/11 01:03:17;;;;;;;38.60;7.40;;;;;;;;;;5065453;28;20070;-43
2023/10/11 01:05:45;;;;;;;79.72;10.23;;;;;;;;;;5065291;28;20048;-38
2023/10/11 01:08:13;;;;;;;65.68;9.18;;;;;;;;;;5065711;28;20305;-41
2023/10/11 01:10:45;;;;;;;79.75;10.35;;;;;;;;;;5065131;28;20029;-37
2023/10/11 01:13:13;;;;;;;127.00;14.70;;;;;;;;;;5064665;28;20021;-42
2023/10/11 01:15:43;;;;;;;98.47;12.70;;;;;;;;;;5064761;28;20052;-39
2023/10/11 01:18:12;;;;;;;127.60;13.38;;;;;;;;;;5065289;28;20078;-40
2023/10/11 01:20:42;;;;;;;177.85;19.17;;;;;;;;;;5065288;28;20021;-47
2023/10/11 01:23:09;;;;;;;125.93;14.70;;;;;;;;;;5065164;28;20025;-40
2023/10/11 01:25:35;;;;;;;67.85;9.52;;;;;;;;;;5065117;28;20064;-37
2023/10/11 01:28:02;;;;;;;53.60;7.80;;;;;;;;;;5065339;28;20039;-44
2023/10/11 01:30:29;;;;;;;41.00;7.00;;;;;;;;;;5064560;28;20088;-42
2023/10/11 01:32:55;;;;;;;29.20;6.88;;;;;;;;;;5065064;28;20044;-43
2023/10/11 01:35:22;;;;;;;20.55;6.38;;;;;;;;;;5064866;28;20017;-38
2023/10/11 01:37:49;;;;;;;27.83;8.48;;;;;;;;;;5064909;28;20028;-38
2023/10/11 01:40:24;;;;;;;31.02;17.10;;;;;;;;;;5064712;28;20098;-41
2023/10/11 01:42:51;;;;;;;30.48;18.50;;;;;;;;;;5067001;28;20036;-49
2023/10/11 01:45:18;;;;;;;20.92;10.00;;;;;;;;;;5076377;28;20028;-42
2023/10/11 01:47:50;;;;;;;14.07;6.82;;;;;;;;;;5084657;28;20031;-42
2023/10/11 01:50:18;;;;;;;8.75;5.13;;;;;;;;;;5084574;28;20052;-37
2023/10/11 01:52:48;;;;;;;11.55;5.15;;;;;;;;;;5083117;28;20099;-40
2023/10/11 01:55:15;;;;;;;18.13;5.53;;;;;;;;;;5079957;28;20356;-36
2023/10/11 01:57:45;;;;;;;19.77;5.30;;;;;;;;;;5064565;28;20264;-39
2023/10/11 02:00:16;;;;;;;19.83;4.85;;;;;;;;;;5063839;28;20280;-41
2023/10/11 02:02:52;;;;;;;17.08;4.30;;;;;;;;;;5064425;28;20301;-37
2023/10/11 02:05:21;;;;;;;17.90;4.18;;;;;;;;;;5064019;28;20214;-36
2023/10/11 02:07:48;;;;;;;14.48;4.28;;;;;;;;;;5064228;28;20063;-45
2023/10/11 02:10:15;;;;;;;10.45;3.38;;;;;;;;;;5075772;28;20032;-41
2023/10/11 02:12:46;;;;;;;12.13;3.38;;;;;;;;;;5082457;28;20408;-42
2023/10/11 02:15:21;;;;;;;8.73;3.47;;;;;;;;;;5083745;28;20036;-49
2023/10/11 02:17:49;;;;;;;10.30;4.07;;;;;;;;;;5084376;28;20131;-49
2023/10/11 02:20:21;;;;;;;13.40;4.85;;;;;;;;;;5083967;28;20047;-44
2023/10/11 02:22:50;;;;;;;10.20;5.28;;;;;;;;;;5082812;28;20034;-45
2023/10/11 02:25:17;;;;;;;10.32;4.82;;;;;;;;;;5083648;28;20221;-46
2023/10/11 02:27:43;;;;;;;13.65;5.25;;;;;;;;;;5084089;28;20298;-43
2023/10/11 02:30:14;;;;;;;10.40;4.38;;;;;;;;;;5083918;28;20048;-42
2023/10/11 02:32:44;;;;;;;9.02;3.20;;;;;;;;;;5084021;28;20023;-45
2023/10/11 02:35:13;;;;;;;8.80;3.70;;;;;;;;;;5084061;28;20055;-51
2023/10/11 02:37:45;;;;;;;8.32;3.45;;;;;;;;;;5075779;28;20017;-53
2023/10/11 02:40:23;;;;;;;9.68;3.40;;;;;;;;;;5063874;28;20087;-44
2023/10/11 02:42:50;;;;;;;8.10;3.58;;;;;;;;;;5063936;28;20056;-46
2023/10/11 02:45:22;;;;;;;4.70;2.53;;;;;;;;;;5068889;28;20035;-50
2023/10/11 02:47:59;;;;;;;7.35;3.05;;;;;;;;;;5069773;28;20327;-45
2023/10/11 02:50:36;;;;;;;7.38;3.40;;;;;;;;;;5072220;28;20033;-47
2023/10/11 02:53:20;;;;;;;6.07;3.10;;;;;;;;;;5074147;28;20293;-44
2023/10/11 02:56:03;;;;;;;5.05;3.00;;;;;;;;;;5074952;28;20028;-50
2023/10/11 02:58:35;;;;;;;4.90;2.80;;;;;;;;;;5072388;28;20020;-44
2023/10/11 03:01:14;;;;;;;6.43;3.22;;;;;;;;;;5084066;28;20092;-49
2023/10/11 03:03:44;;;;;;;8.75;2.88;;;;;;;;;;5083365;28;20054;-50
2023/10/11 03:06:11;;;;;;;36.13;5.07;;;;;;;;;;5082999;28;20048;-44
2023/10/11 03:08:40;;;;;;;93.05;10.68;;;;;;;;;;5083477;28;20048;-51
2023/10/11 03:11:15;;;;;;;87.90;9.32;;;;;;;;;;5084122;28;20089;-46
2023/10/11 03:13:43;;;;;;;67.45;7.43;;;;;;;;;;5084153;28;20080;-50
2023/10/11 03:16:13;;;;;;;60.17;7.38;;;;;;;;;;5083444;28;20278;-51
2023/10/11 03:18:39;;;;;;;77.00;9.23;;;;;;;;;;5083887;28;20021;-52
2023/10/11 03:21:21;;;;;;;86.93;9.68;;;;;;;;;;5083580;28;20084;-44
2023/10/11 03:23:49;;;;;;;90.25;9.88;;;;;;;;;;5083957;28;20095;-50
2023/10/11 03:26:31;;;;;;;88.55;9.68;;;;;;;;;;5083489;28;20032;-44
2023/10/11 03:28:57;;;;;;;;;;;;;;;;;;5083928;28;20039;-47
2023/10/11 03:31:27;;;;;;;87.22;9.15;;;;;;;;;;5083415;28;19908;-45
2023/10/11 03:33:55;;;;;;;55.30;7.40;;;;;;;;;;5083606;28;20054;-52
2023/10/11 03:36:28;;;;;;;50.70;6.72;;;;;;;;;;5085319;28;20016;-47
2023/10/11 03:38:57;;;;;;;44.03;6.30;;;;;;;;;;5087615;28;20021;-45
2023/10/11 03:41:30;;;;;;;39.88;5.40;;;;;;;;;;5087425;28;20036;-41
2023/10/11 03:44:17;;;;;;;34.03;5.32;;;;;;;;;;5087524;28;20028;-40
2023/10/11 03:46:47;;;;;;;37.83;5.10;;;;;;;;;;5086861;28;20384;-46
2023/10/11 03:51:49;;;;;;;34.30;5.05;;;;;;;;;;5086800;28;20028;-46
2023/10/11 03:54:22;;;;;;;41.28;6.03;;;;;;;;;;5087458;28;20040;-47
2023/10/11 03:56:53;;;;;;;53.08;6.43;;;;;;;;;;5086800;28;20036;-47
2023/10/11 03:59:20;;;;;;;58.78;6.50;;;;;;;;;;5087246;28;20031;-49
2023/10/11 04:01:49;;;;;;;47.05;5.97;;;;;;;;;;5087071;28;20386;-48
2023/10/11 04:04:17;;;;;;;54.85;5.75;;;;;;;;;;5087022;28;20047;-48
2023/10/11 04:06:50;;;;;;;37.60;4.80;;;;;;;;;;5086650;28;20337;-45
2023/10/11 04:12:04;;;;;;;42.67;5.28;;;;;;;;;;5086593;28;20036;-47
2023/10/11 04:14:44;;;;;;;46.05;5.15;;;;;;;;;;5086410;28;20038;-48
2023/10/11 04:17:38;;;;;;;43.47;4.63;;;;;;;;;;5086337;28;20035;-43
2023/10/11 04:20:18;;;;;;;31.00;4.38;;;;;;;;;;5086038;28;20390;-53
2023/10/11 04:22:57;;;;;;;23.75;3.58;;;;;;;;;;5086628;28;20028;-47
2023/10/11 04:25:24;;;;;;;17.70;3.10;;;;;;;;;;5086504;28;20194;-54
2023/10/11 04:27:55;;;;;;;12.77;3.17;;;;;;;;;;5086490;28;20059;-43
2023/10/11 04:30:41;;;;;;;10.18;2.83;;;;;;;;;;5086300;28;20036;-47
2023/10/11 04:33:26;;;;;;;7.25;2.47;;;;;;;;;;5081835;28;20012;-47
2023/10/11 04:35:56;;;;;;;9.15;2.53;;;;;;;;;;5076360;28;20025;-45
2023/10/11 04:38:24;;;;;;;7.97;2.65;;;;;;;;;;5086502;28;20110;-52
2023/10/11 04:40:53;;;;;;;7.40;2.38;;;;;;;;;;5086271;28;20325;-46
2023/10/11 04:43:20;;;;;;;6.78;2.50;;;;;;;;;;5086176;28;20197;-44
2023/10/11 04:45:54;;;;;;;4.97;2.22;;;;;;;;;;5086067;28;20031;-46
2023/10/11 04:48:39;;;;;;;5.50;2.10;;;;;;;;;;5086082;28;20024;-47
2023/10/11 04:59:08;;;;;;;6.03;2.35;;;;;;;;;;5086135;28;20063;-51
2023/10/11 05:04:15;;;;;;;9.38;2.67;;;;;;;;;;5086058;28;20090;-46
2023/10/11 05:06:43;;;;;;;4.05;2.13;;;;;;;;;;5085571;28;20068;-50
2023/10/11 05:09:21;;;;;;;6.10;2.35;;;;;;;;;;5086041;28;20043;-45
2023/10/11 05:11:53;;;;;;;5.00;2.35;;;;;;;;;;5085254;28;20028;-42
2023/10/11 05:14:30;;;;;;;6.03;2.67;;;;;;;;;;5085866;28;20092;-44
2023/10/11 05:17:58;;;;;;;5.53;2.47;;;;;;;;;;5085234;28;20178;-47
2023/10/11 05:19:55;;;;;;;5.82;2.38;;;;;;;;;;5081492;28;20040;-44
2023/10/11 05:51:39;;;;;;;5.15;2.70;;;;;;;;;;5084505;28;20027;-51
2023/10/11 05:54:09;;;;;;;5.25;2.80;;;;;;;;;;5085030;28;20028;-49
2023/10/11 05:56:47;;;;;;;4.88;2.53;;;;;;;;;;5084684;28;20040;-49
2023/10/11 05:59:14;;;;;;;6.43;2.97;;;;;;;;;;5083989;28;20356;-55
2023/10/11 06:01:44;;;;;;;5.20;2.20;;;;;;;;;;5084577;28;20070;-52
2023/10/11 06:04:13;;;;;;;6.53;2.38;;;;;;;;;;5084782;28;20324;-47
2023/10/11 06:06:46;;;;;;;6.80;2.67;;;;;;;;;;5084293;28;20060;-48
2023/10/11 06:09:17;;;;;;;8.25;2.72;;;;;;;;;;5084817;28;20256;-51
2023/10/11 06:11:48;;;;;;;6.43;2.47;;;;;;;;;;5084124;28;20028;-51
2023/10/11 06:14:18;;;;;;;6.97;2.60;;;;;;;;;;5084788;28;20028;-47
2023/10/11 06:17:16;;;;;;;4.88;2.53;;;;;;;;;;5084248;28;20122;-47
2023/10/11 06:19:32;;;;;;;6.25;2.50;;;;;;;;;;5084498;28;20046;-53
2023/10/11 06:21:59;;;;;;;6.50;2.42;;;;;;;;;;5084190;28;20078;-51
2023/10/11 06:24:33;;;;;;;8.70;3.13;;;;;;;;;;5084743;28;20068;-47
2023/10/11 06:29:45;;;;;;;6.40;2.65;;;;;;;;;;5083997;28;20039;-51
2023/10/11 06:32:13;;;;;;;3.78;2.40;;;;;;;;;;5084263;28;20031;-52
2023/10/11 06:34:39;;;;;;;5.15;2.50;;;;;;;;;;5084020;28;20029;-52
2023/10/11 06:37:09;;;;;;;6.75;2.40;;;;;;;;;;5083981;28;20028;-49
2023/10/11 06:44:49;;;;;;;6.43;2.78;;;;;;;;;;5083950;28;20028;-45
2023/10/11 06:47:20;;;;;;;7.07;2.83;;;;;;;;;;5083810;28;20038;-51
2023/10/11 06:49:54;;;;;;;5.57;2.70;;;;;;;;;;5083795;28;20095;-51
2023/10/11 06:52:31;;;;;;;5.78;2.60;;;;;;;;;;5083938;28;20047;-50
2023/10/11 06:55:14;;;;;;;6.68;2.70;;;;;;;;;;5083814;28;20074;-51
2023/10/11 06:57:45;;;;;;;6.85;3.00;;;;;;;;;;5083886;28;20025;-48
2023/10/11 07:00:21;;;;;;;6.93;2.70;;;;;;;;;;5083623;28;20051;-51
2023/10/11 07:02:53;;;;;;;6.53;2.70;;;;;;;;;;5083804;28;20040;-50
2023/10/11 07:05:25;;;;;;;6.70;2.65;;;;;;;;;;5083468;28;20060;-51
2023/10/11 07:07:52;;;;;;;4.60;2.80;;;;;;;;;;5083792;28;20028;-49
2023/10/11 07:10:29;;;;;;;9.25;2.80;;;;;;;;;;5083946;28;20048;-51
2023/10/11 07:13:07;;;;;;;5.95;3.03;;;;;;;;;;5087963;28;20189;-48
2023/10/11 07:15:41;;;;;;;7.70;2.70;;;;;;;;;;5087637;28;20032;-51
2023/10/11 07:18:10;;;;;;;5.47;2.67;;;;;;;;;;5087741;28;20029;-51
2023/10/11 07:29:02;;;;;;;8.20;3.00;;;;;;;;;;5078627;28;20036;-53
2023/10/11 07:31:33;;;;;;;6.32;3.65;;;;;;;;;;5087300;28;20036;-49
2023/10/11 07:34:05;;;;;;;7.00;3.58;;;;;;;;;;5087764;28;20016;-50
2023/10/11 07:36:32;;;;;;;7.88;3.35;;;;;;;;;;5087306;28;20036;-49
2023/10/11 07:39:14;;;;;;;9.18;3.60;;;;;;;;;;5087480;28;20016;-49
2023/10/11 07:41:44;;;;;;;7.07;3.40;;;;;;;;;;5087237;28;20032;-54
2023/10/11 07:44:12;;;;;;;5.00;2.78;;;;;;;;;;5087520;28;20032;-44
2023/10/11 07:46:40;;;;;;;4.10;2.85;;;;;;;;;;5087051;28;20031;-51
2023/10/11 07:49:08;;;;;;;9.05;3.00;;;;;;;;;;5087471;28;20205;-47
2023/10/11 07:51:39;;;;;;;6.35;2.80;;;;;;;;;;5086805;28;20041;-51
2023/10/11 07:54:19;;;;;;;9.55;3.42;;;;;;;;;;5087259;28;20012;-50
2023/10/11 07:56:56;;;;;;;6.10;2.90;;;;;;;;;;5086851;28;20032;-54
2023/10/11 07:59:26;;;;;;;6.15;2.80;;;;;;;;;;5087358;28;20021;-52
2023/10/11 08:02:07;;;;;;;5.43;3.00;;;;;;;;;;5086816;28;20059;-49
2023/10/11 08:04:44;;;;;;;6.10;3.38;;;;;;;;;;5087061;28;20027;-45
2023/10/11 08:07:16;;;;;;;7.53;3.13;;;;;;;;;;5086642;28;20044;-42
2023/10/11 08:09:46;;;;;;;7.40;3.05;;;;;;;;;;5086613;28;20324;-47
2023/10/11 08:12:18;;;;;;;5.95;2.92;;;;;;;;;;5086537;28;20036;-50
2023/10/11 08:14:45;;;;;;;8.25;2.45;;;;;;;;;;5086385;28;20037;-48
2023/10/11 08:17:15;;;;;;;5.95;3.00;;;;;;;;;;5086426;28;20031;-56
2023/10/11 08:19:44;;;;;;;6.32;2.60;;;;;;;;;;5086545;28;20031;-50
2023/10/11 08:22:14;;;;;;;9.00;3.28;;;;;;;;;;5085805;28;20051;-44
2023/10/11 08:24:52;;;;;;;8.02;3.15;;;;;;;;;;5086417;28;20062;-48
2023/10/11 08:27:29;;;;;;;5.53;2.92;;;;;;;;;;5086421;28;20050;-54
2023/10/11 08:32:55;;;;;;;8.45;2.88;;;;;;;;;;5074338;28;20033;-52
2023/10/11 08:35:31;;;;;;;5.95;2.90;;;;;;;;;;5086242;28;20052;-44
2023/10/11 08:38:04;;;;;;;8.00;2.92;;;;;;;;;;5086135;28;20016;-46
2023/10/11 08:40:35;;;;;;;8.27;2.92;;;;;;;;;;5086142;28;20039;-45
2023/10/11 08:43:02;;;;;;;5.40;2.97;;;;;;;;;;5085004;28;20025;-48
2023/10/11 08:45:32;;;;;;;6.47;3.05;;;;;;;;;;5085869;28;20064;-50
2023/10/11 08:48:09;;;;;;;7.57;2.78;;;;;;;;;;5086041;28;20044;-41
2023/10/11 08:50:37;;;;;;;7.50;2.65;;;;;;;;;;5085687;28;20220;-41
2023/10/11 08:53:09;;;;;;;7.45;3.13;;;;;;;;;;5086012;28;20217;-40
2023/10/11 08:55:40;;;;;;;5.15;3.20;;;;;;;;;;5085862;28;20032;-48
2023/10/11 08:58:12;;;;;;;6.00;3.17;;;;;;;;;;5085789;28;20025;-51
2023/10/11 09:00:43;;;;;;;8.98;3.45;;;;;;;;;;5085953;28;20029;-46
2023/10/11 09:03:19;;;;;;;7.55;2.90;;;;;;;;;;5085693;28;20040;-44
2023/10/11 09:05:47;;;;;;;5.07;3.13;;;;;;;;;;5084991;28;20052;-43
2023/10/11 09:08:30;;;;;;;7.10;3.40;;;;;;;;;;5084746;28;20263;-45
2023/10/11 09:14:28;;;;;;;7.75;3.38;;;;;;;;;;5079609;28;20038;-50
2023/10/11 09:16:57;;;;;;;9.98;3.67;;;;;;;;;;5084514;28;20029;-49
2023/10/11 09:19:24;;;;;;;10.60;3.53;;;;;;;;;;5084838;28;20070;-47
2023/10/11 09:22:01;;;;;;;6.72;4.20;;;;;;;;;;5084352;28;20024;-47
2023/10/11 09:24:37;;;;;;;10.40;3.80;;;;;;;;;;5084778;28;20032;-49
2023/10/11 09:29:44;;;;;;;9.82;6.50;;;;;;;;;;5084233;28;20024;-48
2023/10/11 09:32:13;;;;;;;10.30;7.32;;;;;;;;;;5084000;28;20028;-52
2023/10/11 09:34:43;;;;;;;10.05;6.10;;;;;;;;;;5083439;28;20083;-44
2023/10/11 09:37:12;;;;;;;9.63;4.88;;;;;;;;;;5084365;28;20066;-44
2023/10/11 09:39:40;;;;;;;8.05;4.40;;;;;;;;;;5084043;28;20070;-47
2023/10/11 09:42:11;;;;;;;6.75;3.90;;;;;;;;;;5083880;28;20046;-48
2023/10/11 09:44:39;;;;;;;6.30;3.70;;;;;;;;;;5083928;28;20029;-42
2023/10/11 09:47:16;;;;;;;7.78;3.75;;;;;;;;;;5083948;28;20084;-44
2023/10/11 09:49:43;;;;;;;9.60;3.35;;;;;;;;;;5083895;28;20044;-42
2023/10/11 09:52:11;;;;;;;9.23;3.42;;;;;;;;;;5083724;28;20039;-41
2023/10/11 09:54:39;;;;;;;9.25;3.63;;;;;;;;;;5083811;28;20031;-42
2023/10/11 09:57:08;;;;;;;6.95;3.30;;;;;;;;;;5083821;28;20028;-41
2023/10/11 09:59:40;;;;;;;7.18;3.53;;;;;;;;;;5083766;28;20024;-44
2023/10/11 10:02:14;;;;;;;11.02;3.42;;;;;;;;;;5083586;28;20028;-44
2023/10/11 10:04:50;;;;;;;9.57;3.53;;;;;;;;;;5009787;28;2104022;-47
2023/10/11 10:07:25;;;;;;;6.90;3.20;;;;;;;;;;5084416;28;20029;-44
2023/10/11 10:09:53;;;;;;;6.47;3.40;;;;;;;;;;5084304;28;20427;-46
2023/10/11 10:12:25;;;;;;;12.50;3.40;;;;;;;;;;5084272;28;20047;-50
2023/10/11 10:15:13;;;;;;;11.00;3.22;;;;;;;;;;5084139;28;20213;-52
2023/10/11 10:18:06;;;;;;;9.85;3.63;;;;;;;;;;5084363;28;20024;-47
2023/10/11 10:20:41;;;;;;;12.63;3.60;;;;;;;;;;5084254;28;20029;-52
2023/10/11 10:23:17;;;;;;;9.57;3.40;;;;;;;;;;5084201;28;20071;-51
2023/10/11 10:25:48;;;;;;;11.68;3.83;;;;;;;;;;5084178;28;20103;-45
2023/10/11 10:28:36;;;;;;;9.65;3.28;;;;;;;;;;5084313;28;20312;-48
2023/10/11 10:31:10;;;;;;;10.20;3.60;;;;;;;;;;5083990;28;20050;-44
2023/10/11 10:33:40;;;;;;;6.20;3.30;;;;;;;;;;5084239;28;20012;-40
2023/10/11 10:36:32;;;;;;;7.05;3.15;;;;;;;;;;5084050;28;20028;-44
2023/10/11 10:38:59;;;;;;;;;;;;;;;;;;5081448;28;20082;-54
2023/10/11 10:41:26;;;;;;;10.35;3.42;;;;;;;;;;5083931;28;19916;-47
2023/10/11 10:44:12;;;;;;;10.15;3.40;;;;;;;;;;5080655;28;20033;-49
2023/10/11 10:46:45;;;;;;;10.90;3.20;;;;;;;;;;5077014;28;20284;-39
2023/10/11 10:49:12;;;;;;;9.60;2.88;;;;;;;;;;5075882;28;20028;-55
2023/10/11 10:51:47;;;;;;;9.38;3.45;;;;;;;;;;5083999;28;20044;-39
2023/10/11 10:54:14;;;;;;;14.07;3.88;;;;;;;;;;5084172;28;20028;-46
2023/10/11 10:56:41;;;;;;;13.35;4.15;;;;;;;;;;5084066;28;20033;-43
2023/10/11 10:59:11;;;;;;;12.45;4.15;;;;;;;;;;5084105;28;20032;-40
2023/10/11 11:01:38;;;;;;;9.98;4.10;;;;;;;;;;5083746;28;20024;-43
2023/10/11 11:04:08;;;;;;;16.27;4.43;;;;;;;;;;5077200;28;20315;-40
2023/10/11 11:06:38;;;;;;;8.43;3.95;;;;;;;;;;5068042;28;20064;-43
2023/10/11 11:09:40;;;;;;;12.52;3.90;;;;;;;;;;5079827;28;21029;-44
2023/10/11 11:12:14;;;;;;;8.05;4.15;;;;;;;;;;5064188;28;20076;-43
2023/10/11 11:14:58;;;;;;;7.82;3.58;;;;;;;;;;5063420;28;20352;-39
2023/10/11 11:17:26;;;;;;;8.10;3.95;;;;;;;;;;5063460;28;20029;-38
2023/10/11 11:20:27;;;;;;;11.38;3.75;;;;;;;;;;5063305;28;20198;-37
2023/10/11 11:22:54;;;;;;;8.30;4.82;;;;;;;;;;5063483;28;20210;-47
2023/10/11 11:28:05;;;;;;;9.18;3.83;;;;;;;;;;5063592;28;20021;-42
2023/10/11 11:30:36;;;;;;;9.52;3.67;;;;;;;;;;5063189;28;20025;-43
2023/10/11 11:33:13;;;;;;;9.60;3.63;;;;;;;;;;5063278;28;20301;-52
2023/10/11 11:35:44;;;;;;;10.32;3.70;;;;;;;;;;5063221;28;20025;-42
2023/10/11 11:38:20;;;;;;;9.93;3.85;;;;;;;;;;5063300;28;20067;-42
2023/10/11 11:40:48;;;;;;;8.90;3.90;;;;;;;;;;5063393;28;20029;-44
2023/10/11 11:43:20;;;;;;;13.02;3.85;;;;;;;;;;5064196;28;20298;-43
2023/10/11 11:45:56;;;;;;;5.63;3.63;;;;;;;;;;5063543;28;20024;-41
2023/10/11 11:48:24;;;;;;;14.98;3.50;;;;;;;;;;5063336;28;20025;-42
2023/10/11 11:50:55;;;;;;;6.32;3.17;;;;;;;;;;5063125;28;20043;-41
2023/10/11 11:53:22;;;;;;;11.00;3.53;;;;;;;;;;5063470;28;20032;-42
2023/10/11 11:55:49;;;;;;;11.10;3.15;;;;;;;;;;5062944;28;20017;-42
2023/10/11 11:58:17;;;;;;;8.30;3.38;;;;;;;;;;5064803;28;20236;-43
2023/10/11 12:00:45;;;;;;;7.40;2.83;;;;;;;;;;5065071;28;20028;-39
2023/10/11 12:03:12;;;;;;;9.45;2.97;;;;;;;;;;5065065;28;20055;-43
2023/10/11 12:05:42;;;;;;;7.72;2.70;;;;;;;;;;5064912;28;20108;-40
2023/10/11 12:08:18;;;;;;;7.05;2.97;;;;;;;;;;5065116;28;20039;-45
2023/10/11 12:10:49;;;;;;;11.40;2.90;;;;;;;;;;5065043;28;20041;-44
2023/10/11 12:13:23;;;;;;;8.20;2.83;;;;;;;;;;5066647;28;20029;-44
2023/10/11 12:15:56;;;;;;;7.53;3.10;;;;;;;;;;5066342;28;20017;-44
2023/10/11 12:18:24;;;;;;;9.65;3.10;;;;;;;;;;5066704;28;20093;-43
2023/10/11 12:20:50;;;;;;;10.32;2.88;;;;;;;;;;5066852;28;20025;-43
2023/10/11 12:23:18;;;;;;;8.35;3.47;;;;;;;;;;5066472;28;20033;-40
2023/10/11 12:25:47;;;;;;;5.70;3.15;;;;;;;;;;5066391;28;20020;-43
2023/10/11 12:28:14;;;;;;;7.20;2.88;;;;;;;;;;5066273;28;20084;-43
2023/10/11 12:30:44;;;;;;;9.00;2.92;;;;;;;;;;5066065;28;20040;-41
2023/10/11 12:33:11;;;;;;;8.35;2.95;;;;;;;;;;5066381;28;20021;-43
2023/10/11 12:35:41;;;;;;;4.85;2.25;;;;;;;;;;5066178;28;20221;-42
2023/10/11 12:38:12;;;;;;;7.45;2.92;;;;;;;;;;5066256;28;20033;-40
2023/10/11 12:40:44;;;;;;;4.20;2.47;;;;;;;;;;5066349;28;20096;-46
2023/10/11 12:43:11;;;;;;;8.38;2.72;;;;;;;;;;5066238;28;20038;-37
2023/10/11 12:45:42;;;;;;;4.93;2.35;;;;;;;;;;5065961;28;20052;-41
2023/10/11 12:48:10;;;;;;;5.10;2.78;;;;;;;;;;5066067;28;20060;-37
2023/10/11 12:50:39;;;;;;;7.00;2.67;;;;;;;;;;5065695;28;20037;-40
2023/10/11 12:53:13;;;;;;;7.30;2.67;;;;;;;;;;5065990;28;20052;-36
2023/10/11 12:55:45;;;;;;;5.28;2.90;;;;;;;;;;5065782;28;20260;-34
2023/10/11 12:58:15;;;;;;;7.70;3.05;;;;;;;;;;5066039;28;20032;-38
2023/10/11 13:00:51;;;;;;;11.13;3.08;;;;;;;;;;5065621;28;20035;-40
2023/10/11 13:05:52;;;;;;;8.25;2.90;;;;;;;;;;5065381;28;20045;-35
2023/10/11 13:08:24;;;;;;;7.10;2.85;;;;;;;;;;5064503;28;20387;-41
2023/10/11 13:10:51;;;;;;;;;;;;;;;;;;5065857;28;20135;-40
2023/10/11 13:13:18;;;;;;;11.82;3.10;;;;;;;;;;5065619;28;19911;-37
2023/10/11 13:16:01;;;;;;;8.77;3.10;;;;;;;;;;5065464;28;20025;-39
2023/10/11 13:18:28;;;;;;;6.93;3.17;;;;;;;;;;5065409;28;20025;-41
2023/10/11 13:20:56;;;;;;;10.73;3.20;;;;;;;;;;5065670;28;20071;-36
2023/10/11 13:23:30;;;;;;;11.15;3.10;;;;;;;;;;5065276;28;20029;-36
2023/10/11 13:25:59;;;;;;;12.23;3.38;;;;;;;;;;5065683;28;20084;-34
2023/10/11 13:28:27;;;;;;;8.00;3.10;;;;;;;;;;5065046;28;20032;-40
2023/10/11 13:30:54;;;;;;;10.88;3.00;;;;;;;;;;5065511;28;20020;-34
2023/10/11 13:33:21;;;;;;;7.78;3.10;;;;;;;;;;5065228;28;20025;-42
2023/10/11 13:35:49;;;;;;;8.25;3.10;;;;;;;;;;5065224;28;20029;-46
2023/10/11 13:38:20;;;;;;;7.85;2.67;;;;;;;;;;5065072;28;20027;-36
2023/10/11 13:40:47;;;;;;;5.15;2.90;;;;;;;;;;5065230;28;20025;-37
2023/10/11 13:43:14;;;;;;;6.45;2.67;;;;;;;;;;5064710;28;20100;-37
2023/10/11 13:45:46;;;;;;;7.07;3.00;;;;;;;;;;5065085;28;20031;-38
2023/10/11 13:48:13;;;;;;;4.93;2.65;;;;;;;;;;5064880;28;20028;-38
2023/10/11 13:50:41;;;;;;;5.35;2.72;;;;;;;;;;5064760;28;20029;-46
2023/10/11 13:53:13;;;;;;;3.63;2.35;;;;;;;;;;5064705;28;20321;-43
2023/10/11 13:55:40;;;;;;;10.82;2.72;;;;;;;;;;5064955;28;20301;-41
2023/10/11 13:58:08;;;;;;;5.38;2.90;;;;;;;;;;5064563;28;20076;-43
2023/10/11 14:05:50;;;;;;;4.63;2.75;;;;;;;;;;5064377;28;20057;-40
2023/10/11 14:08:24;;;;;;;8.02;2.85;;;;;;;;;;5064370;28;20025;-44
2023/10/11 14:10:54;;;;;;;4.40;2.60;;;;;;;;;;5064634;28;20082;-43
2023/10/11 14:13:27;;;;;;;7.25;2.70;;;;;;;;;;5064431;28;20028;-40
2023/10/11 14:15:54;;;;;;;;;;;;;;;;;;5064452;28;20025;-45
2023/10/11 14:18:21;;;;;;;5.43;3.22;;;;;;;;;;5064395;28;19912;-43
2023/10/11 14:20:55;;;;;;;5.90;3.33;;;;;;;;;;5064242;28;20032;-43
2023/10/11 14:23:28;;;;;;;6.90;3.38;;;;;;;;;;5064154;28;20052;-43
2023/10/11 14:38:38;;;;;;;7.28;4.50;;;;;;;;;;5063928;28;20037;-46
2023/10/11 14:41:10;;;;;;;7.53;4.40;;;;;;;;;;5064123;28;20025;-44
2023/10/11 14:43:37;;;;;;;8.98;4.13;;;;;;;;;;5063795;28;20037;-40
2023/10/11 14:46:07;;;;;;;7.72;4.65;;;;;;;;;;5079658;28;20032;-43
2023/10/11 14:48:39;;;;;;;6.88;4.60;;;;;;;;;;5063668;28;20025;-43
2023/10/11 14:51:11;;;;;;;12.40;4.50;;;;;;;;;;5064133;28;20096;-44
2023/10/11 14:53:37;;;;;;;9.02;4.30;;;;;;;;;;5063598;28;20225;-43
2023/10/11 14:56:07;;;;;;;7.03;4.07;;;;;;;;;;5064101;28;20025;-42
2023/10/11 14:58:34;;;;;;;6.57;4.30;;;;;;;;;;5063659;28;20020;-44
2023/10/11 15:01:08;;;;;;;7.82;4.30;;;;;;;;;;5063550;28;20052;-44
2023/10/11 15:03:37;;;;;;;8.13;3.70;;;;;;;;;;5063699;28;20127;-43
2023/10/11 15:06:12;;;;;;;7.28;3.70;;;;;;;;;;5063598;28;20049;-45
2023/10/11 15:08:43;;;;;;;5.78;3.65;;;;;;;;;;5063626;28;20037;-44
2023/10/11 15:11:11;;;;;;;8.75;3.97;;;;;;;;;;5063927;28;20017;-44
2023/10/11 15:13:38;;;;;;;10.18;4.07;;;;;;;;;;5063650;28;20033;-42
2023/10/11 15:16:05;;;;;;;6.63;3.55;;;;;;;;;;5063785;28;20051;-43
2023/10/11 15:18:33;;;;;;;5.25;3.33;;;;;;;;;;5063543;28;20202;-43
2023/10/11 15:21:01;;;;;;;6.35;3.47;;;;;;;;;;5063763;28;20048;-42
2023/10/11 15:23:28;;;;;;;6.57;3.38;;;;;;;;;;5063400;28;20029;-43
2023/10/11 15:25:55;;;;;;;5.35;3.38;;;;;;;;;;5063782;28;20060;-44
2023/10/11 15:28:23;;;;;;;7.63;3.50;;;;;;;;;;5063036;28;20213;-44
2023/10/11 15:30:50;;;;;;;6.05;3.70;;;;;;;;;;5063496;28;20025;-44
2023/10/11 15:33:19;;;;;;;6.70;3.50;;;;;;;;;;5066843;28;20351;-41
2023/10/11 15:35:56;;;;;;;7.78;4.22;;;;;;;;;;5067295;28;20038;-44
2023/10/11 15:38:24;;;;;;;9.98;3.38;;;;;;;;;;5067097;28;20252;-42
2023/10/11 15:40:59;;;;;;;9.38;3.70;;;;;;;;;;5067437;28;20032;-43
2023/10/11 15:43:25;;;;;;;9.20;3.70;;;;;;;;;;5067029;28;20025;-43
2023/10/11 15:45:52;;;;;;;14.45;4.53;;;;;;;;;;5067409;28;20048;-48
2023/10/11 15:48:20;;;;;;;9.63;4.20;;;;;;;;;;5066742;28;20044;-45
2023/10/11 15:50:47;;;;;;;8.18;3.70;;;;;;;;;;5067188;28;20029;-43
2023/10/11 15:53:13;;;;;;;9.57;3.88;;;;;;;;;;5066965;28;20043;-45
2023/10/11 15:55:43;;;;;;;10.88;3.72;;;;;;;;;;5067055;28;20016;-45
2023/10/11 15:58:10;;;;;;;10.68;3.95;;;;;;;;;;5066972;28;20032;-44
2023/10/11 16:00:41;;;;;;;10.25;3.75;;;;;;;;;;5067021;28;20058;-43
2023/10/11 16:03:09;;;;;;;9.32;3.95;;;;;;;;;;5066523;28;20325;-48
2023/10/11 16:05:36;;;;;;;11.45;3.90;;;;;;;;;;5066621;28;20047;-43
2023/10/11 16:08:04;;;;;;;7.10;4.05;;;;;;;;;;5066644;28;20040;-43
2023/10/11 16:10:31;;;;;;;6.85;3.67;;;;;;;;;;5066548;28;20024;-44
2023/10/11 16:13:01;;;;;;;6.25;3.70;;;;;;;;;;5066665;28;20035;-46
2023/10/11 16:15:29;;;;;;;7.07;3.60;;;;;;;;;;5066666;28;20029;-44
2023/10/11 16:17:56;;;;;;;8.82;3.58;;;;;;;;;;5066424;28;20320;-43
2023/10/11 16:20:23;;;;;;;9.50;3.95;;;;;;;;;;5066849;28;20028;-47
2023/10/11 16:22:49;;;;;;;9.55;3.80;;;;;;;;;;5066452;28;20067;-43
2023/10/11 16:25:18;;;;;;;7.15;3.58;;;;;;;;;;5066417;28;20305;-44
2023/10/11 16:27:46;;;;;;;9.00;3.97;;;;;;;;;;5066189;28;20029;-43
2023/10/11 16:30:14;;;;;;;5.13;3.30;;;;;;;;;;5066385;28;20082;-43
2023/10/11 16:32:41;;;;;;;6.85;3.30;;;;;;;;;;5066061;28;20039;-43
2023/10/11 16:35:08;;;;;;;6.20;3.80;;;;;;;;;;5066442;28;20048;-44
2023/10/11 16:37:36;;;;;;;5.82;3.67;;;;;;;;;;5066121;28;20033;-44
2023/10/11 16:40:04;;;;;;;8.02;3.50;;;;;;;;;;5066111;28;20063;-43